createdAt,value
2018-05-08T00:01:35.250Z,96180.73
2018-05-08T00:04:58.894Z,96175.46
2018-05-08T00:08:21.778Z,96179.03
2018-05-08T00:11:44.668Z,96185.20
2018-05-08T00:15:08.269Z,96186.05
2018-05-08T00:18:31.132Z,96180.75
2018-05-08T00:21:53.985Z,96174.05
2018-05-08T00:25:16.821Z,96177.98
2018-05-08T00:28:39.677Z,96174.87
2018-05-08T00:32:02.525Z,96174.42
2018-05-08T00:35:25.446Z,96171.10
2018-05-08T00:38:48.287Z,96172.16
2018-05-08T00:42:11.131Z,96163.16
2018-05-08T00:45:33.995Z,96167.87
2018-05-08T00:48:56.835Z,96164.12
2018-05-08T00:52:19.688Z,96160.78
2018-05-08T00:55:42.556Z,96164.88
2018-05-08T00:59:05.471Z,96150.66
2018-05-08T01:02:28.316Z,96161.64
2018-05-08T01:05:51.133Z,96171.92
2018-05-08T01:09:14.009Z,96172.42
2018-05-08T01:12:36.849Z,96167.77
2018-05-08T01:15:59.713Z,96168.61
2018-05-08T01:19:22.546Z,96178.06
2018-05-08T01:22:45.396Z,96179.03
2018-05-08T01:26:08.240Z,96172.64
2018-05-08T01:29:31.097Z,96166.87
2018-05-08T01:32:53.976Z,96169.17
2018-05-08T01:36:17.586Z,96172.09
2018-05-08T01:39:40.484Z,96170.08
2018-05-08T01:43:03.361Z,96162.26
2018-05-08T01:46:26.210Z,96166.98
2018-05-08T01:49:49.194Z,96172.04
2018-05-08T01:53:12.096Z,96173.50
2018-05-08T01:56:35.004Z,96167.94
2018-05-08T01:59:58.620Z,96171.20
2018-05-08T02:03:21.458Z,96176.17
2018-05-08T02:06:44.289Z,96178.58
2018-05-08T02:10:07.204Z,96173.44
2018-05-08T02:13:30.068Z,96173.17
2018-05-08T02:16:52.949Z,96179.45
2018-05-08T02:20:15.907Z,96186.95
2018-05-08T02:23:38.702Z,96190.92
2018-05-08T02:27:01.532Z,96187.52
2018-05-08T02:30:24.462Z,96187.48
2018-05-08T02:33:47.325Z,96189.34
2018-05-08T02:37:10.163Z,96184.80
2018-05-08T02:40:32.995Z,96184.21
2018-05-08T02:43:56.673Z,96185.02
2018-05-08T02:47:19.493Z,96183.19
2018-05-08T02:50:42.348Z,96180.58
2018-05-08T02:54:05.204Z,96175.48
2018-05-08T02:57:28.043Z,96175.77
2018-05-08T03:00:50.904Z,96171.77
2018-05-08T03:04:14.162Z,96176.19
2018-05-08T03:07:37.040Z,96174.83
2018-05-08T03:10:59.876Z,96167.02
2018-05-08T03:14:22.792Z,96170.94
2018-05-08T03:17:45.648Z,96181.45
2018-05-08T03:21:08.492Z,96175.92
2018-05-08T03:24:31.422Z,96178.78
2018-05-08T03:27:54.257Z,96182.07
2018-05-08T03:31:17.106Z,96180.34
2018-05-08T03:34:39.996Z,96187.95
2018-05-08T03:38:03.610Z,96183.37
2018-05-08T03:41:26.446Z,96180.66
2018-05-08T03:44:49.324Z,96185.94
2018-05-08T03:48:12.231Z,96187.78
2018-05-08T03:51:35.088Z,96187.97
2018-05-08T03:54:57.981Z,96186.67
2018-05-08T03:58:20.834Z,96189.48
2018-05-08T04:01:55.472Z,96189.84
2018-05-08T04:05:30.045Z,96180.30
2018-05-08T04:08:54.392Z,96184.43
2018-05-08T04:12:17.245Z,96179.36
2018-05-08T04:15:40.095Z,96187.02
2018-05-08T04:19:02.939Z,96186.25
2018-05-08T04:22:25.799Z,96182.36
2018-05-08T04:25:48.664Z,96183.22
2018-05-08T04:29:13.037Z,96190.19
2018-05-08T04:32:36.656Z,96192.67
2018-05-08T04:35:59.647Z,96191.02
2018-05-08T04:39:22.502Z,96191.98
2018-05-08T04:42:45.354Z,96188.31
2018-05-08T04:46:08.198Z,96194.97
2018-05-08T04:49:31.047Z,96202.48
2018-05-08T04:52:53.896Z,96201.11
2018-05-08T04:56:16.831Z,96200.42
2018-05-08T04:59:39.735Z,96207.87
2018-05-08T05:03:02.605Z,96205.14
2018-05-08T05:06:25.486Z,96206.64
2018-05-08T05:09:48.392Z,96201.66
2018-05-08T05:13:11.986Z,96212.92
2018-05-08T05:16:34.867Z,96214.95
2018-05-08T05:19:57.777Z,96212.13
2018-05-08T05:23:22.656Z,96214.19
2018-05-08T05:26:45.713Z,96209.91
2018-05-08T05:30:09.040Z,96204.05
2018-05-08T05:33:32.654Z,96201.01
2018-05-08T05:36:55.584Z,96201.92
2018-05-08T05:40:18.481Z,96201.86
2018-05-08T05:43:42.150Z,96204.02
2018-05-08T05:47:04.994Z,96201.86
2018-05-08T05:50:27.975Z,96200.95
2018-05-08T05:53:50.829Z,96200.52
2018-05-08T05:57:13.688Z,96194.00
2018-05-08T06:00:36.523Z,96188.55
2018-05-08T06:03:59.385Z,96181.93
2018-05-08T06:07:22.315Z,96192.22
2018-05-08T06:10:45.194Z,96186.45
2018-05-08T06:14:08.068Z,96184.20
2018-05-08T06:17:30.917Z,96187.10
2018-05-08T06:20:53.746Z,96181.92
2018-05-08T06:24:16.676Z,96176.95
2018-05-08T06:27:39.526Z,96181.77
2018-05-08T06:31:02.391Z,96170.28
2018-05-08T06:34:25.340Z,96170.76
2018-05-08T06:37:49.010Z,96169.47
2018-05-08T06:41:12.004Z,96171.02
2018-05-08T06:44:34.866Z,96163.69
2018-05-08T06:47:57.767Z,96156.87
2018-05-08T06:51:20.629Z,96157.02
2018-05-08T06:54:43.490Z,96164.46
2018-05-08T06:58:07.201Z,96165.66
2018-05-08T07:01:30.041Z,96172.66
2018-05-08T07:04:52.899Z,96166.80
2018-05-08T07:08:16.570Z,96167.00
2018-05-08T07:11:39.474Z,96169.30
2018-05-08T07:15:03.100Z,96162.75
2018-05-08T07:18:26.403Z,96158.93
2018-05-08T07:21:49.764Z,96164.08
2018-05-08T07:25:13.089Z,96159.95
2018-05-08T07:28:36.383Z,96161.55
2018-05-08T07:31:59.258Z,96161.31
2018-05-08T07:35:22.167Z,96164.15
2018-05-08T07:38:45.005Z,96160.90
2018-05-08T07:42:08.325Z,96168.14
2018-05-08T07:45:32.469Z,96164.31
2018-05-08T07:48:55.871Z,96162.32
2018-05-08T07:52:19.249Z,96156.45
2018-05-08T07:55:42.569Z,96152.44
2018-05-08T07:59:06.700Z,96147.58
2018-05-08T08:02:30.050Z,96144.02
2018-05-08T08:05:53.456Z,96138.95
2018-05-08T08:09:16.775Z,96131.77
2018-05-08T08:12:40.856Z,96132.59
2018-05-08T08:16:04.937Z,96134.53
2018-05-08T08:19:29.760Z,96120.19
2018-05-08T08:22:53.224Z,96125.69
2018-05-08T08:26:16.504Z,96121.61
2018-05-08T08:29:39.884Z,96116.56
2018-05-08T08:33:03.184Z,96108.64
2018-05-08T08:36:27.304Z,96110.28
2018-05-08T08:39:50.595Z,96107.78
2018-05-08T08:43:13.874Z,96103.73
2018-05-08T08:46:37.254Z,96103.06
2018-05-08T08:50:01.977Z,96101.83
2018-05-08T08:53:25.300Z,96097.27
2018-05-08T08:56:48.611Z,96095.98
2018-05-08T09:00:12.038Z,96096.75
2018-05-08T09:03:36.404Z,96086.84
2018-05-08T09:06:59.706Z,96084.06
2018-05-08T09:10:23.097Z,96071.39
2018-05-08T09:13:46.411Z,96076.20
2018-05-08T09:17:09.704Z,96064.38
2018-05-08T09:20:33.089Z,96055.20
2018-05-08T09:23:57.124Z,96058.82
2018-05-08T09:27:20.430Z,96056.97
2018-05-08T09:30:43.812Z,96055.92
2018-05-08T09:34:07.943Z,96053.28
2018-05-08T09:37:31.221Z,96052.56
2018-05-08T09:40:54.628Z,96046.26
2018-05-08T09:44:17.962Z,96044.55
2018-05-08T09:47:42.832Z,96042.33
2018-05-08T09:51:06.176Z,96046.34
2018-05-08T09:54:29.460Z,96044.92
2018-05-08T09:57:52.964Z,96039.04
2018-05-08T10:01:16.282Z,96042.92
2018-05-08T10:04:40.478Z,96039.66
2018-05-08T10:08:03.827Z,96029.37
2018-05-08T10:11:27.194Z,96031.53
2018-05-08T10:14:50.656Z,96026.20
2018-05-08T10:18:14.783Z,96026.98
2018-05-08T10:21:38.146Z,96022.83
2018-05-08T10:25:01.488Z,96015.95
2018-05-08T10:28:24.862Z,96003.58
2018-05-08T10:31:48.197Z,96004.50
2018-05-08T10:35:11.598Z,95996.02
2018-05-08T10:38:35.662Z,95984.31
2018-05-08T10:41:59.051Z,95980.06
2018-05-08T10:45:24.645Z,95970.55
2018-05-08T10:48:48.695Z,95960.66
2018-05-08T10:52:12.006Z,95964.55
2018-05-08T10:55:35.391Z,95959.63
2018-05-08T10:58:58.611Z,95955.27
2018-05-08T11:02:21.898Z,95947.50
2018-05-08T11:05:45.157Z,95944.05
2018-05-08T11:09:09.221Z,95941.39
2018-05-08T11:12:32.733Z,95932.02
2018-05-08T11:15:56.135Z,95931.73
2018-05-08T11:19:19.407Z,95929.77
2018-05-08T11:22:42.719Z,95930.16
2018-05-08T11:26:06.063Z,95929.48
2018-05-08T11:29:29.334Z,95927.08
2018-05-08T11:36:47.237Z,95923.60
2018-05-08T11:40:10.561Z,95915.95
2018-05-08T11:43:34.036Z,95916.73
2018-05-08T11:46:57.320Z,95909.57
2018-05-08T11:50:20.605Z,95908.24
2018-05-08T11:53:43.893Z,95898.31
2018-05-08T11:57:07.253Z,95890.53
2018-05-08T12:00:30.590Z,95885.67
2018-05-08T12:03:53.886Z,95882.98
2018-05-08T12:07:17.167Z,95871.34
2018-05-08T12:10:40.646Z,95873.02
2018-05-08T12:14:04.746Z,95884.61
2018-05-08T12:17:28.542Z,95880.80
2018-05-08T12:20:51.891Z,95880.55
2018-05-08T12:24:15.202Z,95875.95
2018-05-08T12:27:38.583Z,95875.34
2018-05-08T12:31:02.635Z,95864.42
2018-05-08T12:34:25.986Z,95861.44
2018-05-08T12:37:49.282Z,95862.12
2018-05-08T12:41:12.648Z,95854.79
2018-05-08T12:44:35.977Z,95859.70
2018-05-08T12:47:59.378Z,95841.11
2018-05-08T12:51:23.444Z,95850.95
2018-05-08T12:54:46.773Z,95839.02
2018-05-08T12:58:10.890Z,95830.98
2018-05-08T13:01:34.247Z,95824.09
2018-05-08T13:04:57.583Z,95822.30
2018-05-08T13:08:20.876Z,95818.94
2018-05-08T13:11:44.234Z,95811.20
2018-05-08T13:23:02.230Z,95792.48
2018-05-08T13:26:25.577Z,95795.82
2018-05-08T13:29:48.913Z,95779.41
2018-05-08T13:33:12.225Z,95787.96
2018-05-08T13:36:35.611Z,95779.67
2018-05-08T13:39:58.851Z,95776.81
2018-05-08T13:43:22.216Z,95774.95
2018-05-08T13:46:45.571Z,95771.79
2018-05-08T13:50:08.933Z,95766.27
2018-05-08T13:53:32.250Z,95763.63
2018-05-08T13:56:55.646Z,95762.78
2018-05-08T14:00:18.986Z,95756.34
2018-05-08T14:03:42.290Z,95748.30
2018-05-08T14:07:05.651Z,95746.92
2018-05-08T14:10:29.005Z,95743.80
2018-05-08T14:13:52.353Z,95737.03
2018-05-08T14:17:15.773Z,95733.00
2018-05-08T14:20:39.060Z,95721.00
2018-05-08T14:24:02.345Z,95722.34
2018-05-08T14:27:25.701Z,95727.09
2018-05-08T14:30:49.009Z,95718.81
2018-05-08T14:34:13.157Z,95714.72
2018-05-08T14:37:36.580Z,95716.64
2018-05-08T14:40:59.976Z,95712.25
2018-05-08T14:44:24.142Z,95714.97
2018-05-08T14:47:47.534Z,95709.70
2018-05-08T14:51:10.883Z,95715.56
2018-05-08T14:54:34.229Z,95713.05
2018-05-08T14:57:57.527Z,95706.15
2018-05-08T15:01:20.872Z,95704.46
2018-05-08T15:04:44.153Z,95706.46
2018-05-08T15:08:07.424Z,95700.79
2018-05-08T15:11:30.991Z,95703.77
2018-05-08T15:14:54.289Z,95688.61
2018-05-08T15:18:17.585Z,95695.20
2018-05-08T15:21:40.949Z,95693.01
2018-05-08T15:25:04.213Z,95683.73
2018-05-08T15:28:27.656Z,95682.59
2018-05-08T15:31:51.004Z,95678.06
2018-05-08T15:35:14.274Z,95677.28
2018-05-08T15:38:37.580Z,95674.65
2018-05-08T15:42:00.922Z,95665.18
2018-05-08T15:45:24.237Z,95662.06
2018-05-08T15:48:47.576Z,95673.08
2018-05-08T15:52:10.897Z,95662.66
2018-05-08T15:55:34.969Z,95661.30
2018-05-08T15:58:58.302Z,95661.55
2018-05-08T16:02:22.327Z,95663.56
2018-05-08T16:05:45.673Z,95652.14
2018-05-08T16:09:09.106Z,95645.84
2018-05-08T16:12:32.501Z,95638.70
2018-05-08T16:15:56.600Z,95640.16
2018-05-08T16:19:19.909Z,95647.15
2018-05-08T16:22:43.283Z,95645.55
2018-05-08T16:26:07.421Z,95643.89
2018-05-08T16:29:30.762Z,95643.25
2018-05-08T16:32:54.101Z,95649.52
2018-05-08T16:36:18.219Z,95648.11
2018-05-08T16:39:41.531Z,95643.28
2018-05-08T16:43:05.637Z,95648.06
2018-05-08T16:46:28.930Z,95640.13
2018-05-08T16:49:52.215Z,95642.27
2018-05-08T16:53:15.547Z,95648.58
2018-05-08T16:56:39.677Z,95641.45
2018-05-08T17:00:03.065Z,95637.76
2018-05-08T17:03:27.179Z,95631.19
2018-05-08T17:06:50.526Z,95623.63
2018-05-08T17:10:13.841Z,95632.13
2018-05-08T17:13:37.192Z,95630.38
2018-05-08T17:17:00.524Z,95632.94
2018-05-08T17:20:23.813Z,95629.12
2018-05-08T17:23:47.087Z,95634.60
2018-05-08T17:27:10.376Z,95630.56
2018-05-08T17:30:33.678Z,95626.30
2018-05-08T17:33:57.028Z,95624.20
2018-05-08T17:37:20.568Z,95620.34
2018-05-08T17:40:44.199Z,95622.55
2018-05-08T17:44:07.622Z,95620.98
2018-05-08T17:47:30.472Z,95618.94
2018-05-08T17:50:53.376Z,95622.52
2018-05-08T17:54:16.297Z,95628.12
2018-05-08T17:57:39.454Z,95628.86
2018-05-08T18:01:03.412Z,95634.05
2018-05-08T18:04:27.038Z,95630.77
2018-05-08T18:07:50.116Z,95630.52
2018-05-08T18:11:13.993Z,95633.30
2018-05-08T18:14:38.779Z,95627.72
2018-05-08T18:18:03.062Z,95619.45
2018-05-08T18:21:25.970Z,95626.97
2018-05-08T18:24:48.845Z,95631.17
2018-05-08T18:28:11.838Z,95638.09
2018-05-08T18:31:37.396Z,95644.28
2018-05-08T18:35:01.052Z,95640.67
2018-05-08T18:38:24.805Z,95645.55
2018-05-08T18:41:47.782Z,95652.28
2018-05-08T18:45:11.564Z,95655.90
2018-05-08T18:48:34.511Z,95653.80
2018-05-08T18:51:57.381Z,95652.41
2018-05-08T18:55:20.286Z,95653.73
2018-05-08T18:58:43.152Z,95654.17
2018-05-08T19:02:06.239Z,95662.13
2018-05-08T19:05:29.943Z,95661.52
2018-05-08T19:08:54.317Z,95658.09
2018-05-08T19:12:17.963Z,95656.63
2018-05-08T19:15:46.561Z,95662.61
2018-05-08T19:19:18.064Z,95664.70
2018-05-08T19:22:42.464Z,95668.78
2018-05-08T19:26:05.341Z,95673.39
2018-05-08T19:29:33.786Z,95669.29
2018-05-08T19:32:56.791Z,95681.70
2018-05-08T19:36:25.379Z,95675.88
2018-05-08T19:39:48.269Z,95676.41
2018-05-08T19:43:11.165Z,95676.34
2018-05-08T19:46:36.232Z,95676.20
2018-05-08T19:49:59.394Z,95684.05
2018-05-08T19:53:23.206Z,95689.13
2018-05-08T19:56:46.934Z,95684.01
2018-05-08T20:00:09.852Z,95682.16
2018-05-08T20:03:32.735Z,95683.59
2018-05-08T20:06:55.575Z,95688.08
2018-05-08T20:10:18.423Z,95688.04
2018-05-08T20:13:41.339Z,95690.55
2018-05-08T20:17:04.239Z,95694.36
2018-05-08T20:20:28.061Z,95696.92
2018-05-08T20:23:50.901Z,95698.33
2018-05-08T20:27:13.931Z,95693.89
2018-05-08T20:30:38.452Z,95700.14
2018-05-08T20:34:01.284Z,95700.39
2018-05-08T20:37:24.292Z,95697.19
2018-05-08T20:40:48.111Z,95698.50
2018-05-08T20:44:11.129Z,95702.73
2018-05-08T20:47:33.972Z,95698.62
2018-05-08T20:50:57.451Z,95697.14
2018-05-08T20:54:20.336Z,95705.37
2018-05-08T20:57:44.215Z,95709.66
2018-05-08T21:01:07.928Z,95704.55
2018-05-08T21:04:30.676Z,95713.36
2018-05-08T21:07:53.533Z,95708.31
2018-05-08T21:11:16.483Z,95713.88
2018-05-08T21:14:40.115Z,95707.78
2018-05-08T21:18:03.064Z,95712.49
2018-05-08T21:21:25.872Z,95710.06
2018-05-08T21:24:48.749Z,95709.23
2018-05-08T21:28:17.223Z,95710.27
2018-05-08T21:31:40.813Z,95716.08
2018-05-08T21:35:03.684Z,95721.16
2018-05-08T21:38:28.339Z,95714.80
2018-05-08T21:41:51.244Z,95720.82
2018-05-08T21:45:14.192Z,95722.19
2018-05-08T21:48:38.653Z,95719.25
2018-05-08T21:52:01.605Z,95718.77
2018-05-08T21:55:24.456Z,95720.17
2018-05-08T21:58:47.308Z,95718.16
2018-05-08T22:02:10.141Z,95719.81
2018-05-08T22:05:32.991Z,95721.06
2018-05-08T22:08:55.842Z,95717.42
2018-05-08T22:12:18.720Z,95719.22
2018-05-08T22:15:43.369Z,95725.20
2018-05-08T22:19:06.294Z,95727.14
2018-05-08T22:22:29.254Z,95732.18
2018-05-08T22:25:52.182Z,95734.00
2018-05-08T22:29:15.169Z,95730.19
2018-05-08T22:32:38.174Z,95727.53
2018-05-08T22:36:01.034Z,95725.04
2018-05-08T22:39:23.937Z,95718.04
2018-05-08T22:42:46.800Z,95720.67
2018-05-08T22:46:09.648Z,95725.30
2018-05-08T22:49:32.499Z,95717.13
2018-05-08T22:52:55.338Z,95722.05
2018-05-08T22:56:18.185Z,95710.32
2018-05-08T22:59:41.788Z,95709.71
2018-05-08T23:03:05.412Z,95720.30
2018-05-08T23:06:28.262Z,95716.71
2018-05-08T23:09:51.100Z,95719.05
2018-05-08T23:13:13.984Z,95711.13
2018-05-08T23:16:37.624Z,95705.19
2018-05-08T23:20:00.518Z,95703.81
2018-05-08T23:23:23.376Z,95705.11
2018-05-08T23:26:46.292Z,95706.77
2018-05-08T23:30:09.122Z,95707.41
2018-05-08T23:33:31.992Z,95707.47
2018-05-08T23:36:54.850Z,95705.06
2018-05-08T23:40:17.766Z,95701.28
2018-05-08T23:43:40.676Z,95702.53
2018-05-08T23:47:03.542Z,95697.14
2018-05-08T23:50:26.454Z,95703.75
2018-05-08T23:53:49.309Z,95698.38
2018-05-08T23:57:12.154Z,95694.95
